Time;durP1;ratioP1;P1;durP2;ratioP2;P2;SDS_P1;SDS_P2;PMS_P1;PMS_P2;Temp;Humidity;BMP_temperature;BMP_pressure;BME280_temperature;BME280_humidity;BME280_pressure;Samples;Min_cycle;Max_cycle;Signal;HPM_P1;HPM_P2
2021/09/23 00:00:13;;;;;;;8.00;7.20;;;9.40;99.90;;;;;;4818866;29;20455;-93
2021/09/23 00:05:18;;;;;;;7.77;6.90;;;9.40;99.90;;;;;;4825484;29;20508;-93
2021/09/23 00:07:47;;;;;;;8.13;7.33;;;9.40;99.90;;;;;;4821619;29;20481;-93
2021/09/23 00:10:22;;;;;;;9.87;8.13;;;9.50;99.90;;;;;;4827217;29;21191;-93
2021/09/23 00:12:57;;;;;;;7.00;6.40;;;9.50;99.90;;;;;;4829757;29;20470;-93
2021/09/23 00:15:37;;;;;;;7.87;6.70;;;9.50;99.90;;;;;;4814273;29;20956;-94
2021/09/23 00:18:31;;;;;;;7.20;6.40;;;9.50;99.90;;;;;;4828108;29;20448;-93
2021/09/23 00:27:43;;;;;;;6.60;6.00;;;9.10;99.90;;;;;;4820578;29;20460;-92
2021/09/23 05:35:49;;;;;;;6.27;5.27;;;6.70;99.90;;;;;;4840789;29;20506;-84
2021/09/23 05:38:15;;;;;;;7.07;5.83;;;6.60;99.90;;;;;;4847764;29;20467;-83
2021/09/23 05:40:41;;;;;;;6.70;6.00;;;6.80;99.90;;;;;;4843220;29;20451;-84
2021/09/23 05:43:07;;;;;;;6.20;5.40;;;6.90;99.90;;;;;;4841680;29;20202;-84
2021/09/23 05:45:33;;;;;;;7.70;6.20;;;6.90;99.90;;;;;;4847308;29;20198;-83
2021/09/23 05:47:59;;;;;;;7.80;6.67;;;6.90;99.90;;;;;;4841563;29;20455;-84
2021/09/23 05:50:37;;;;;;;37.93;21.87;;;7.00;99.90;;;;;;4843259;29;20565;-83
2021/09/23 05:53:03;;;;;;;39.30;25.63;;;7.00;99.90;;;;;;4841604;29;20471;-83
2021/09/23 05:55:30;;;;;;;37.10;30.30;;;7.00;99.90;;;;;;4842177;29;20239;-83
2021/09/23 05:57:56;;;;;;;9.07;7.80;;;7.00;99.90;;;;;;4844262;29;20214;-85
2021/09/23 06:00:23;;;;;;;6.90;5.60;;;7.10;99.90;;;;;;4847020;29;20443;-84
2021/09/23 06:02:49;;;;;;;7.10;5.67;;;7.30;99.90;;;;;;4849459;29;20475;-84
2021/09/23 06:05:16;;;;;;;11.33;7.23;;;7.30;99.90;;;;;;4845830;29;20572;-84
2021/09/23 06:07:43;;;;;;;6.33;5.47;;;7.30;99.90;;;;;;4846162;29;20194;-84
2021/09/23 06:10:09;;;;;;;6.43;5.83;;;7.30;99.90;;;;;;4846023;29;20490;-84
2021/09/23 06:12:35;;;;;;;6.47;5.77;;;7.30;99.90;;;;;;4844813;29;20475;-85
2021/09/23 06:15:01;;;;;;;6.90;6.20;;;7.30;99.90;;;;;;4829930;29;20490;-85
2021/09/23 06:17:41;;;;;;;8.07;6.07;;;7.30;99.90;;;;;;4846360;29;20507;-90
2021/09/23 06:20:37;;;;;;;7.03;6.30;;;7.30;99.90;;;;;;4847073;29;20458;-91
2021/09/23 06:23:03;;;;;;;8.43;6.93;;;7.40;99.90;;;;;;4858829;29;20551;-91
2021/09/23 06:25:37;;;;;;;8.00;6.63;;;7.40;99.90;;;;;;4853651;29;21044;-94
2021/09/23 06:31:08;;;;;;;7.90;6.60;;;7.60;99.90;;;;;;5163415;24;21039;-92
2021/09/23 06:33:54;;;;;;;7.40;6.50;;;7.80;99.90;;;;;;4840688;29;20467;-92
2021/09/23 06:36:20;;;;;;;8.27;6.90;;;8.10;99.90;;;;;;4847607;29;20619;-91
2021/09/23 06:38:53;;;;;;;10.00;6.87;;;8.20;99.90;;;;;;4845091;29;20549;-93
2021/09/23 06:41:42;;;;;;;7.53;6.63;;;8.40;99.90;;;;;;4850007;29;20208;-91
2021/09/23 06:44:15;;;;;;;9.47;7.40;;;8.60;99.90;;;;;;4844782;29;20738;-90
2021/09/23 10:38:45;;;;;;;4.30;4.00;;;20.00;97.70;;;;;;507824;27;20929;-91
2021/09/23 10:41:16;;;;;;;4.90;4.50;;;20.20;97.20;;;;;;4820588;29;20521;-92
2021/09/23 10:43:43;;;;;;;4.27;3.97;;;20.00;96.70;;;;;;4833587;29;20588;-90
2021/09/23 10:46:14;;;;;;;4.50;4.20;;;20.30;96.50;;;;;;4828433;29;20450;-90
2021/09/23 10:48:45;;;;;;;4.10;3.13;;;20.30;95.20;;;;;;4827990;29;20490;-91
2021/09/23 10:51:14;;;;;;;4.90;3.30;;;20.30;94.00;;;;;;4822346;29;20570;-91
2021/09/23 10:53:53;;;;;;;3.80;3.50;;;20.50;93.60;;;;;;4834467;29;20451;-89
2021/09/23 10:56:20;;;;;;;3.53;3.23;;;20.70;93.30;;;;;;4826222;29;20459;-90
2021/09/23 10:58:51;;;;;;;4.60;3.00;;;21.10;92.60;;;;;;4843570;29;20966;-90
2021/09/23 11:01:38;;;;;;;2.40;2.20;;;21.10;92.20;;;;;;4819805;29;20451;-89
2021/09/23 11:04:04;;;;;;;3.37;3.17;;;20.80;91.90;;;;;;4823196;29;20515;-91
2021/09/23 11:06:32;;;;;;;4.40;4.00;;;20.60;92.80;;;;;;4842211;29;20471;-89
2021/09/23 11:09:14;;;;;;;3.60;3.20;;;20.50;93.00;;;;;;4825370;29;20199;-90
2021/09/23 11:11:40;;;;;;;6.03;2.83;;;20.70;92.90;;;;;;4825495;29;20494;-92
2021/09/23 11:14:06;;;;;;;3.40;3.10;;;20.90;92.40;;;;;;4823662;29;20835;-88
2021/09/23 11:16:35;;;;;;;4.03;3.63;;;21.20;92.40;;;;;;4831965;29;20668;-89
2021/09/23 11:19:02;;;;;;;5.80;4.30;;;21.20;92.30;;;;;;4820753;29;20713;-89
2021/09/23 11:21:28;;;;;;;3.23;2.70;;;21.40;93.60;;;;;;4818127;29;20459;-88
2021/09/23 11:23:55;;;;;;;3.30;3.10;;;21.50;91.90;;;;;;4821893;29;20582;-89
2021/09/23 11:26:21;;;;;;;3.97;3.00;;;21.40;92.60;;;;;;4830574;29;21034;-90
2021/09/23 11:29:00;;;;;;;3.73;3.50;;;21.60;92.50;;;;;;4832806;29;20464;-89
2021/09/23 11:31:43;;;;;;;3.60;3.00;;;22.20;91.80;;;;;;4818956;29;20519;-90
2021/09/23 11:34:09;;;;;;;3.60;2.80;;;22.70;91.80;;;;;;4825803;29;20925;-91
2021/09/23 11:36:41;;;;;;;3.30;3.00;;;23.00;90.20;;;;;;4821739;29;20451;-90
2021/09/23 11:39:17;;;;;;;3.73;3.17;;;23.10;89.00;;;;;;4822624;29;20194;-91
2021/09/23 11:41:43;;;;;;;2.60;2.50;;;23.00;90.70;;;;;;4825439;29;20451;-90
2021/09/23 11:44:25;;;;;;;3.53;3.07;;;23.10;88.50;;;;;;4824381;29;20453;-89
2021/09/23 11:46:56;;;;;;;2.63;2.43;;;22.80;88.40;;;;;;4828218;29;20469;-92
2021/09/23 11:49:22;;;;;;;3.10;2.90;;;22.70;88.90;;;;;;4826801;29;20500;-93
2021/09/23 11:51:48;;;;;;;2.47;2.37;;;22.70;89.10;;;;;;4827936;29;20615;-94
2021/09/23 11:54:21;;;;;;;2.93;2.73;;;22.80;88.10;;;;;;4828200;29;20210;-93
2021/09/23 11:56:46;;;;;;;2.83;2.63;;;23.00;87.80;;;;;;4826479;29;20893;-93
2021/09/23 11:59:24;;;;;;;2.67;2.47;;;23.20;86.60;;;;;;4830529;29;20455;-92
2021/09/23 12:02:01;;;;;;;3.67;2.03;;;23.30;83.90;;;;;;4838737;29;20631;-92
2021/09/23 12:04:26;;;;;;;2.43;2.30;;;23.50;84.60;;;;;;4824330;29;22196;-91
2021/09/23 12:07:01;;;;;;;2.60;2.40;;;23.40;86.80;;;;;;4829626;29;20454;-92
2021/09/23 12:09:26;;;;;;;2.87;2.67;;;23.50;84.10;;;;;;4830643;29;20706;-92
2021/09/23 12:11:52;;;;;;;3.10;2.60;;;23.70;84.60;;;;;;4823956;29;20464;-90
2021/09/23 12:14:18;;;;;;;2.77;2.57;;;23.50;83.40;;;;;;4824182;29;20200;-91
2021/09/23 12:16:48;;;;;;;2.30;2.20;;;23.80;83.30;;;;;;4825874;29;20209;-91
2021/09/23 12:19:17;;;;;;;2.50;2.30;;;23.70;80.80;;;;;;4831759;29;20670;-91
2021/09/23 12:21:54;;;;;;;2.83;2.63;;;23.70;82.20;;;;;;4842995;29;20447;-93
2021/09/23 12:24:35;;;;;;;3.60;1.77;;;23.70;80.10;;;;;;4838309;29;20451;-95
2021/09/23 12:27:01;;;;;;;2.63;2.43;;;23.60;78.40;;;;;;4832503;29;20840;-93
2021/09/23 12:29:27;;;;;;;3.30;2.70;;;23.50;77.40;;;;;;4831005;29;20458;-92
2021/09/23 12:32:05;;;;;;;2.77;2.57;;;23.60;78.70;;;;;;4828432;29;20464;-93
2021/09/23 12:34:37;;;;;;;2.10;2.00;;;23.70;78.90;;;;;;4842620;29;20285;-92
2021/09/23 12:37:07;;;;;;;2.10;1.90;;;23.70;76.40;;;;;;4825118;29;20894;-93
2021/09/23 12:39:42;;;;;;;2.60;2.40;;;24.00;77.00;;;;;;4827921;29;21006;-92
2021/09/23 12:42:20;;;;;;;2.90;2.53;;;24.00;73.90;;;;;;4828427;29;20810;-93
2021/09/23 12:44:56;;;;;;;2.43;2.33;;;24.00;74.20;;;;;;4830833;29;20462;-91
2021/09/23 12:47:23;;;;;;;2.53;2.30;;;24.00;75.80;;;;;;4823619;29;20991;-93
2021/09/23 12:49:48;;;;;;;2.40;2.20;;;24.30;73.50;;;;;;4826320;29;20483;-91
2021/09/23 12:52:16;;;;;;;2.63;2.43;;;24.20;73.10;;;;;;4827286;29;20482;-92
2021/09/23 12:55:04;;;;;;;4.43;2.43;;;23.90;74.60;;;;;;4829050;29;20190;-92
2021/09/23 12:57:32;;;;;;;4.10;2.33;;;24.30;74.80;;;;;;4822229;29;20474;-91
2021/09/23 13:00:13;;;;;;;2.00;1.90;;;24.60;73.10;;;;;;4827450;29;20450;-90
2021/09/23 13:02:44;;;;;;;2.60;2.40;;;24.60;71.30;;;;;;4824301;29;20459;-92
2021/09/23 13:05:12;;;;;;;2.40;2.20;;;24.50;72.40;;;;;;4828303;29;20451;-92
2021/09/23 13:07:46;;;;;;;2.20;2.10;;;24.20;70.80;;;;;;4826159;29;20452;-92
2021/09/23 13:10:19;;;;;;;2.33;2.23;;;24.00;71.10;;;;;;4820544;29;20494;-92
2021/09/23 13:12:58;;;;;;;2.83;2.60;;;24.20;69.20;;;;;;4825490;29;20705;-92
2021/09/23 13:15:26;;;;;;;2.27;2.17;;;24.20;69.40;;;;;;4826442;29;20444;-91
2021/09/23 13:18:19;;;;;;;3.90;2.50;;;24.20;69.00;;;;;;4825529;29;20447;-93
2021/09/23 13:20:54;;;;;;;2.60;2.40;;;24.40;70.40;;;;;;4826270;29;20561;-92
2021/09/23 13:23:25;;;;;;;3.90;2.50;;;24.60;70.50;;;;;;4833600;29;21648;-91
2021/09/23 13:25:54;;;;;;;2.63;2.43;;;24.60;70.80;;;;;;4827389;29;20458;-91
2021/09/23 13:28:24;;;;;;;2.23;2.03;;;24.60;70.90;;;;;;4826076;29;20618;-91
2021/09/23 13:30:52;;;;;;;2.43;2.33;;;23.90;70.90;;;;;;4828337;29;20482;-91
2021/09/23 13:33:19;;;;;;;2.43;2.23;;;24.20;72.10;;;;;;4831938;29;20450;-91
2021/09/23 13:35:45;;;;;;;2.27;2.17;;;24.50;72.10;;;;;;4826308;29;20456;-91
2021/09/23 13:38:11;;;;;;;2.47;2.30;;;24.70;71.00;;;;;;4825450;29;20511;-92
2021/09/23 13:40:40;;;;;;;3.93;2.53;;;24.80;71.60;;;;;;4831615;29;20882;-92
2021/09/23 13:43:08;;;;;;;4.73;2.40;;;24.60;71.80;;;;;;4845617;29;20451;-92
2021/09/23 13:45:34;;;;;;;2.30;2.00;;;25.10;72.20;;;;;;4827921;29;20448;-91
2021/09/23 13:48:21;;;;;;;2.37;2.17;;;25.10;71.10;;;;;;4839887;29;20575;-92
2021/09/23 13:50:50;;;;;;;2.20;2.10;;;25.30;72.60;;;;;;4834573;29;20605;-92
2021/09/23 13:53:41;;;;;;;4.00;2.50;;;24.70;71.20;;;;;;4833212;29;20459;-92
2021/09/23 13:56:07;;;;;;;2.40;2.20;;;25.10;71.60;;;;;;4838865;29;20724;-92
2021/09/23 13:58:34;;;;;;;2.57;2.37;;;27.10;69.40;;;;;;4829797;29;20542;-91
2021/09/23 14:01:02;;;;;;;2.83;2.50;;;27.90;67.30;;;;;;4817300;29;20201;-92
2021/09/23 14:03:31;;;;;;;3.73;2.93;;;28.20;65.40;;;;;;4830797;29;20451;-91
2021/09/23 14:05:59;;;;;;;2.80;2.60;;;28.20;64.90;;;;;;4826254;29;20509;-90
2021/09/23 14:08:35;;;;;;;3.13;2.83;;;27.20;65.20;;;;;;4837071;29;20499;-92
2021/09/23 14:11:13;;;;;;;2.67;2.47;;;27.00;66.80;;;;;;4805969;29;20582;-91
2021/09/23 14:13:38;;;;;;;2.53;2.37;;;27.60;65.50;;;;;;4839438;29;20969;-91
2021/09/23 14:16:04;;;;;;;2.53;2.33;;;28.90;62.30;;;;;;4825122;29;20471;-91
2021/09/23 14:18:49;;;;;;;3.10;2.80;;;28.60;62.50;;;;;;4824486;29;20283;-91
2021/09/23 14:21:20;;;;;;;2.80;2.60;;;29.50;59.50;;;;;;4839173;29;20202;-91
2021/09/23 14:23:47;;;;;;;2.70;2.50;;;30.30;57.90;;;;;;4819751;29;20538;-90
2021/09/23 14:26:16;;;;;;;2.90;2.70;;;28.20;61.30;;;;;;4836168;29;21061;-90
2021/09/23 14:28:43;;;;;;;3.03;2.83;;;26.90;65.70;;;;;;4839509;29;21179;-90
2021/09/23 14:31:10;;;;;;;2.50;2.40;;;26.00;67.50;;;;;;4821783;29;20869;-91
2021/09/23 14:33:44;;;;;;;3.03;2.73;;;25.40;69.40;;;;;;4828902;29;21042;-91
2021/09/23 14:36:09;;;;;;;2.57;2.37;;;25.10;70.70;;;;;;4825611;29;21654;-92
2021/09/23 14:38:36;;;;;;;2.67;2.47;;;25.10;71.40;;;;;;4826260;29;20554;-91
2021/09/23 14:41:01;;;;;;;2.87;2.60;;;24.90;73.80;;;;;;4820436;29;20210;-90
2021/09/23 14:43:29;;;;;;;4.40;3.30;;;25.10;76.10;;;;;;4831796;29;20567;-90
2021/09/23 14:46:00;;;;;;;2.93;2.60;;;25.30;76.50;;;;;;4822870;29;20515;-91
2021/09/23 14:48:29;;;;;;;4.03;3.10;;;24.90;74.50;;;;;;4817405;29;20447;-88
2021/09/23 14:50:55;;;;;;;2.90;2.57;;;24.70;75.10;;;;;;4819764;29;20487;-87
2021/09/23 14:53:23;;;;;;;4.20;3.03;;;24.60;75.50;;;;;;4822418;29;20199;-87
2021/09/23 14:55:51;;;;;;;6.77;2.93;;;24.80;77.00;;;;;;4820092;29;20824;-87
2021/09/23 14:58:27;;;;;;;5.23;3.13;;;25.60;78.00;;;;;;4825284;29;20479;-86
2021/09/23 15:01:13;;;;;;;3.67;2.90;;;26.80;74.60;;;;;;4840786;29;20459;-87
2021/09/23 15:03:42;;;;;;;8.00;3.40;;;28.60;70.00;;;;;;4823611;29;20462;-87
2021/09/23 15:06:16;;;;;;;6.10;3.23;;;29.40;66.90;;;;;;4821153;29;20907;-87
2021/09/23 15:08:50;;;;;;;3.40;3.00;;;30.10;64.40;;;;;;4827366;29;20882;-87
2021/09/23 15:11:28;;;;;;;4.70;3.30;;;29.80;65.20;;;;;;4821797;29;20585;-87
2021/09/23 15:13:54;;;;;;;4.03;3.10;;;29.40;65.10;;;;;;4830728;29;20572;-87
2021/09/23 15:21:40;;;;;;;3.60;3.30;;;31.30;59.60;;;;;;4836549;29;20515;-87
2021/09/23 15:24:13;;;;;;;3.23;3.03;;;28.60;64.50;;;;;;4833445;29;20609;-87
2021/09/23 15:26:38;;;;;;;4.57;3.50;;;29.70;64.70;;;;;;4831406;29;20507;-87
2021/09/23 15:29:04;;;;;;;3.53;3.23;;;29.50;63.30;;;;;;4824385;29;20553;-87
2021/09/23 15:31:30;;;;;;;3.50;3.20;;;28.60;64.50;;;;;;4824159;29;20244;-87
2021/09/23 15:36:35;;;;;;;3.97;3.23;;;25.80;73.30;;;;;;4833470;29;20572;-87
2021/09/23 15:39:07;;;;;;;3.87;3.57;;;25.60;74.10;;;;;;4833424;29;20458;-86
2021/09/23 15:41:44;;;;;;;4.17;3.77;;;25.60;74.40;;;;;;4833284;29;20646;-86
2021/09/23 15:44:24;;;;;;;3.87;3.53;;;26.30;73.80;;;;;;4835244;29;20451;-87
2021/09/23 15:46:52;;;;;;;3.60;3.30;;;26.50;71.30;;;;;;4835388;29;20555;-86
2021/09/23 15:49:18;;;;;;;7.10;3.80;;;25.80;70.90;;;;;;4842513;29;20463;-87
2021/09/23 15:51:44;;;;;;;4.73;3.47;;;26.20;70.90;;;;;;4825823;29;20551;-87
2021/09/23 15:54:12;;;;;;;5.10;3.70;;;26.10;70.40;;;;;;4823741;29;20258;-87
2021/09/23 15:56:38;;;;;;;3.63;3.23;;;25.90;70.00;;;;;;4839197;29;20245;-87
2021/09/23 15:59:03;;;;;;;3.43;3.13;;;26.30;70.20;;;;;;4819899;29;20546;-87
2021/09/23 16:01:31;;;;;;;2.80;2.60;;;26.90;64.60;;;;;;4819209;29;20211;-87
2021/09/23 16:03:56;;;;;;;3.30;3.00;;;26.30;61.30;;;;;;4821485;29;20217;-87
2021/09/23 16:06:23;;;;;;;3.53;2.73;;;24.90;62.30;;;;;;4823007;29;20984;-86
2021/09/23 16:08:50;;;;;;;2.57;2.37;;;24.80;61.60;;;;;;4821233;29;20700;-91
2021/09/23 16:11:16;;;;;;;2.53;2.33;;;24.30;61.30;;;;;;4818320;29;20483;-92
2021/09/23 16:13:41;;;;;;;2.60;2.40;;;23.40;58.40;;;;;;4822742;29;20806;-90
2021/09/23 16:16:18;;;;;;;4.50;2.30;;;22.80;59.30;;;;;;4820380;29;21300;-91
2021/09/23 16:18:43;;;;;;;2.30;2.10;;;22.40;59.10;;;;;;4838849;29;20550;-90
2021/09/23 16:21:14;;;;;;;2.87;2.67;;;22.00;59.10;;;;;;4824810;29;20467;-90
2021/09/23 16:23:48;;;;;;;2.50;2.30;;;21.70;60.00;;;;;;4836976;29;20467;-92
2021/09/23 16:26:18;;;;;;;2.43;2.23;;;21.60;60.90;;;;;;4815658;29;20973;-92
2021/09/23 16:29:01;;;;;;;2.70;2.40;;;21.60;61.80;;;;;;4836240;29;21017;-94
2021/09/23 16:31:27;;;;;;;2.93;2.73;;;21.50;61.70;;;;;;4832015;29;20483;-89
2021/09/23 16:33:58;;;;;;;5.70;3.10;;;21.40;62.40;;;;;;4829068;29;20199;-89
2021/09/23 16:36:25;;;;;;;4.00;3.70;;;21.30;63.00;;;;;;4827302;29;20198;-89
2021/09/23 16:38:55;;;;;;;3.20;2.87;;;21.10;63.40;;;;;;4834477;29;20990;-90
2021/09/23 16:41:25;;;;;;;2.60;2.40;;;21.10;64.00;;;;;;4811126;29;20488;-89
2021/09/23 16:44:09;;;;;;;2.90;2.70;;;21.00;64.40;;;;;;4820437;29;20455;-89
2021/09/23 16:46:35;;;;;;;3.50;2.83;;;20.90;65.00;;;;;;4825033;29;20205;-90
2021/09/23 16:49:02;;;;;;;2.73;2.53;;;20.80;64.80;;;;;;4828419;29;20470;-89
2021/09/23 16:51:28;;;;;;;2.40;2.20;;;20.80;64.90;;;;;;4819689;29;20491;-89
2021/09/23 16:53:54;;;;;;;3.30;3.00;;;20.70;64.40;;;;;;4820204;29;20459;-89
2021/09/23 16:56:19;;;;;;;3.97;3.20;;;20.60;65.00;;;;;;4828324;29;21008;-88
2021/09/23 16:58:45;;;;;;;2.70;2.50;;;20.60;65.30;;;;;;4827788;29;20621;-88
2021/09/23 17:01:11;;;;;;;2.70;2.50;;;20.60;66.30;;;;;;4824849;29;20210;-90
2021/09/23 17:03:37;;;;;;;3.10;2.80;;;20.50;67.00;;;;;;4838830;29;20704;-89
2021/09/23 17:06:05;;;;;;;3.30;2.87;;;20.30;68.30;;;;;;4825263;29;20246;-90
2021/09/23 17:08:33;;;;;;;3.83;3.13;;;20.20;69.60;;;;;;4829827;29;20474;-88
2021/09/23 17:10:58;;;;;;;4.03;3.30;;;20.10;70.80;;;;;;4826124;29;20479;-88
2021/09/23 17:13:24;;;;;;;4.50;2.63;;;20.00;72.40;;;;;;4829099;29;20450;-89
2021/09/23 17:15:50;;;;;;;3.00;2.70;;;20.00;72.90;;;;;;4829939;29;20190;-89
2021/09/23 17:18:16;;;;;;;3.90;3.00;;;19.90;73.60;;;;;;4829193;29;20548;-89
2021/09/23 17:20:41;;;;;;;3.60;3.30;;;19.80;74.10;;;;;;4827341;29;20199;-89
2021/09/23 17:23:07;;;;;;;3.17;2.97;;;19.70;75.20;;;;;;4828459;29;20195;-88
2021/09/23 17:25:34;;;;;;;3.67;3.30;;;19.50;74.80;;;;;;4831235;29;20217;-88
2021/09/23 17:28:00;;;;;;;3.10;2.90;;;19.40;75.80;;;;;;4827825;29;20194;-89
2021/09/23 17:30:25;;;;;;;4.97;2.97;;;19.30;75.60;;;;;;4828430;29;20874;-88
2021/09/23 17:32:51;;;;;;;3.63;3.30;;;19.20;76.60;;;;;;4842077;29;20295;-89
2021/09/23 17:35:17;;;;;;;3.80;2.80;;;19.00;76.60;;;;;;4829193;29;20202;-89
2021/09/23 17:37:43;;;;;;;2.93;2.73;;;18.90;77.70;;;;;;4828097;29;20301;-88
2021/09/23 17:40:10;;;;;;;4.70;2.77;;;18.70;78.50;;;;;;4839878;29;20553;-88
2021/09/23 17:42:37;;;;;;;3.40;3.10;;;18.60;78.50;;;;;;4826790;29;20229;-88
2021/09/23 17:45:05;;;;;;;2.93;2.73;;;18.50;79.00;;;;;;4831870;29;20509;-88
2021/09/23 17:47:31;;;;;;;3.40;3.10;;;18.40;79.70;;;;;;4823178;29;20900;-88
2021/09/23 17:49:57;;;;;;;3.47;3.17;;;18.30;79.70;;;;;;4838231;29;20439;-88
2021/09/23 17:52:23;;;;;;;3.93;3.50;;;18.30;79.80;;;;;;4823248;29;20466;-89
2021/09/23 17:54:49;;;;;;;4.43;3.83;;;18.20;80.40;;;;;;4823910;29;20825;-90
2021/09/23 17:57:15;;;;;;;3.73;3.43;;;18.10;80.90;;;;;;4825412;29;20463;-90
2021/09/23 17:59:40;;;;;;;4.30;2.77;;;18.10;82.00;;;;;;4836102;29;20195;-89
2021/09/23 18:02:07;;;;;;;3.80;3.50;;;18.00;81.90;;;;;;4834489;29;21357;-90
2021/09/23 18:04:33;;;;;;;3.47;3.17;;;17.90;82.50;;;;;;4827323;29;20218;-91
2021/09/23 18:06:58;;;;;;;3.90;3.10;;;17.90;82.70;;;;;;4809770;29;20459;-86
2021/09/23 18:09:24;;;;;;;3.40;3.10;;;17.80;83.90;;;;;;4824137;29;20492;-86
2021/09/23 18:11:50;;;;;;;6.13;3.60;;;17.70;84.10;;;;;;4827379;29;20317;-86
2021/09/23 18:14:16;;;;;;;3.37;3.07;;;17.70;84.30;;;;;;4810730;29;20653;-87
2021/09/23 18:16:44;;;;;;;4.20;3.90;;;17.70;84.50;;;;;;4825901;29;20199;-87
2021/09/23 18:19:09;;;;;;;4.77;4.07;;;17.70;84.80;;;;;;4824821;29;20208;-87
2021/09/23 18:21:36;;;;;;;3.30;3.10;;;17.50;85.80;;;;;;4838131;29;20459;-86
2021/09/23 18:24:05;;;;;;;4.10;3.70;;;17.40;86.50;;;;;;4822891;29;20546;-86
2021/09/23 18:26:34;;;;;;;3.53;3.33;;;17.20;87.30;;;;;;4824524;29;20447;-86
2021/09/23 18:29:00;;;;;;;4.50;3.07;;;17.20;88.30;;;;;;4825373;29;20464;-86
2021/09/23 18:31:27;;;;;;;3.30;3.10;;;17.00;89.00;;;;;;4827509;29;20832;-88
2021/09/23 18:33:54;;;;;;;3.83;3.43;;;16.90;90.20;;;;;;4818393;29;20490;-85
2021/09/23 18:36:36;;;;;;;3.40;3.10;;;16.60;91.20;;;;;;4821981;29;20471;-88
2021/09/23 18:39:04;;;;;;;3.53;3.27;;;16.40;92.80;;;;;;4820428;29;20465;-88
2021/09/23 18:41:30;;;;;;;3.70;3.20;;;16.20;93.80;;;;;;4820405;29;20482;-88
2021/09/23 18:43:55;;;;;;;3.50;3.20;;;16.00;94.70;;;;;;4825434;29;21502;-89
2021/09/23 18:46:25;;;;;;;3.97;3.60;;;15.70;95.70;;;;;;4822283;29;20249;-90
2021/09/23 18:48:55;;;;;;;5.97;3.80;;;15.50;97.60;;;;;;4822578;29;20194;-90
2021/09/23 18:51:21;;;;;;;3.10;2.90;;;15.30;98.80;;;;;;4823936;29;20485;-89
2021/09/23 18:53:47;;;;;;;3.80;3.13;;;15.00;99.60;;;;;;4834155;29;20450;-88
2021/09/23 18:56:14;;;;;;;4.40;3.90;;;14.90;99.90;;;;;;4840864;29;20471;-88
2021/09/23 18:58:39;;;;;;;3.60;2.87;;;14.80;99.90;;;;;;4836223;29;20456;-89
2021/09/23 19:01:08;;;;;;;4.90;3.90;;;14.60;99.90;;;;;;4821346;29;20760;-88
2021/09/23 19:03:36;;;;;;;4.23;3.50;;;14.60;99.90;;;;;;4819378;29;20269;-89
2021/09/23 19:06:04;;;;;;;4.10;3.50;;;14.60;99.90;;;;;;4821472;29;20463;-88
2021/09/23 19:08:30;;;;;;;4.23;3.83;;;14.40;99.90;;;;;;4835764;29;20206;-88
2021/09/23 19:10:56;;;;;;;3.40;3.10;;;14.30;99.90;;;;;;4825584;29;20601;-88
2021/09/23 19:13:22;;;;;;;3.60;3.30;;;14.30;99.90;;;;;;4822632;29;20466;-88
2021/09/23 19:15:49;;;;;;;4.37;3.37;;;14.20;99.90;;;;;;4834792;29;20193;-88
2021/09/23 19:18:15;;;;;;;3.97;3.63;;;14.30;99.90;;;;;;4820881;29;20206;-88
2021/09/23 19:20:41;;;;;;;4.07;3.70;;;14.40;99.90;;;;;;4835639;29;20464;-87
2021/09/23 19:23:07;;;;;;;4.00;3.70;;;14.40;99.90;;;;;;4820492;29;20829;-88
2021/09/23 19:25:33;;;;;;;8.20;7.40;;;14.40;99.90;;;;;;4826345;29;20210;-87
2021/09/23 19:27:59;;;;;;;7.40;6.70;;;14.50;99.90;;;;;;4841282;29;20218;-87
2021/09/23 19:30:26;;;;;;;5.40;5.00;;;14.60;99.90;;;;;;4822561;29;20534;-87
2021/09/23 19:32:54;;;;;;;5.37;4.87;;;14.60;99.90;;;;;;4817496;29;20460;-86
2021/09/23 19:35:24;;;;;;;5.27;4.77;;;14.60;99.90;;;;;;4820929;29;20993;-87
2021/09/23 19:37:52;;;;;;;4.40;3.80;;;14.50;99.90;;;;;;4834071;29;24480;-87
2021/09/23 19:40:17;;;;;;;5.30;4.30;;;14.30;99.90;;;;;;4821178;29;20459;-87
2021/09/23 19:42:50;;;;;;;4.60;4.07;;;14.20;99.90;;;;;;4822419;29;20451;-87
2021/09/23 19:45:18;;;;;;;5.23;3.77;;;14.20;99.90;;;;;;4820128;29;20198;-88
2021/09/23 19:47:45;;;;;;;4.07;3.50;;;14.10;99.90;;;;;;4822110;29;20463;-88
2021/09/23 19:50:14;;;;;;;4.97;4.30;;;14.10;99.90;;;;;;4820768;29;20486;-88
2021/09/23 19:52:42;;;;;;;4.97;3.93;;;14.10;99.90;;;;;;4803079;29;20467;-88
2021/09/23 19:55:09;;;;;;;4.23;3.83;;;14.20;99.90;;;;;;4820403;29;20519;-90
2021/09/23 19:57:35;;;;;;;3.80;3.50;;;14.10;99.90;;;;;;4824290;29;20457;-89
2021/09/23 20:00:03;;;;;;;10.50;9.50;;;14.00;99.90;;;;;;4826012;29;20517;-88
2021/09/23 20:02:29;;;;;;;6.83;6.23;;;13.90;99.90;;;;;;4821942;29;20455;-88
2021/09/23 20:04:55;;;;;;;5.77;5.27;;;13.80;99.90;;;;;;4832807;29;20820;-87
2021/09/23 20:07:20;;;;;;;5.00;4.23;;;13.80;99.90;;;;;;4821580;29;20609;-87
2021/09/23 20:09:46;;;;;;;4.50;4.10;;;13.90;99.90;;;;;;4821693;29;20201;-86
2021/09/23 20:12:12;;;;;;;5.10;4.60;;;14.00;99.90;;;;;;4831506;29;20222;-86
2021/09/23 20:14:40;;;;;;;6.33;4.17;;;14.00;99.90;;;;;;4835811;29;20206;-84
2021/09/23 20:17:06;;;;;;;4.00;3.70;;;14.10;99.90;;;;;;4823112;29;20205;-82
2021/09/23 20:19:39;;;;;;;6.70;4.47;;;14.30;99.90;;;;;;4820729;29;20986;-88
2021/09/23 20:22:33;;;;;;;4.40;4.00;;;14.40;99.90;;;;;;4825563;29;20451;-92
2021/09/23 20:25:07;;;;;;;3.87;3.57;;;14.40;99.90;;;;;;4819910;29;20464;-88
2021/09/23 20:27:33;;;;;;;4.40;3.60;;;14.40;99.90;;;;;;4836792;29;20503;-88
2021/09/23 20:29:59;;;;;;;5.10;3.90;;;14.50;99.90;;;;;;4827073;29;20451;-90
2021/09/23 20:32:25;;;;;;;4.57;3.80;;;14.40;99.90;;;;;;4826062;29;21121;-91
2021/09/23 20:34:51;;;;;;;4.70;3.77;;;14.40;99.90;;;;;;4828698;29;20431;-90
2021/09/23 20:37:17;;;;;;;4.63;3.53;;;14.40;99.90;;;;;;4824574;29;20462;-90
2021/09/23 20:39:43;;;;;;;6.30;4.73;;;14.50;99.90;;;;;;4823803;29;20219;-89
2021/09/23 20:42:09;;;;;;;5.10;4.00;;;14.50;99.90;;;;;;4833889;29;20455;-90
2021/09/23 20:44:35;;;;;;;3.60;3.30;;;14.40;99.90;;;;;;4825451;29;20446;-90
2021/09/23 20:47:02;;;;;;;4.40;4.00;;;14.30;99.90;;;;;;4823062;29;21001;-91
2021/09/23 20:49:28;;;;;;;5.60;3.73;;;14.30;99.90;;;;;;4822102;29;20925;-90
2021/09/23 20:51:55;;;;;;;5.20;4.70;;;14.30;99.90;;;;;;4826475;29;20585;-91
2021/09/23 20:54:22;;;;;;;4.80;4.37;;;14.30;99.90;;;;;;4822386;29;20996;-90
2021/09/23 20:57:12;;;;;;;4.80;4.30;;;14.00;99.90;;;;;;4824254;29;20544;-91
2021/09/23 20:59:38;;;;;;;4.30;3.97;;;13.90;99.90;;;;;;4820238;29;20447;-91
2021/09/23 21:02:06;;;;;;;4.90;4.27;;;13.90;99.90;;;;;;4823225;29;20447;-91
2021/09/23 21:04:33;;;;;;;5.13;4.50;;;13.80;99.90;;;;;;4818859;29;20204;-91
2021/09/23 21:06:59;;;;;;;5.97;4.63;;;13.70;99.90;;;;;;4823041;29;20451;-92
2021/09/23 21:09:25;;;;;;;8.90;5.60;;;13.70;99.90;;;;;;4821859;29;20460;-89
2021/09/23 21:11:50;;;;;;;8.87;6.60;;;13.60;99.90;;;;;;4836959;29;20488;-91
2021/09/23 21:14:16;;;;;;;8.10;6.00;;;13.60;99.90;;;;;;4826480;29;20195;-91
2021/09/23 21:16:43;;;;;;;11.70;6.30;;;13.50;99.90;;;;;;4824415;29;20266;-90
2021/09/23 21:19:09;;;;;;;7.87;5.70;;;13.50;99.90;;;;;;4822823;29;20274;-91
2021/09/23 21:21:35;;;;;;;7.87;5.60;;;13.50;99.90;;;;;;4842186;29;21114;-91
2021/09/23 21:24:10;;;;;;;8.47;5.50;;;13.30;99.90;;;;;;4830642;29;20198;-91
2021/09/23 21:26:38;;;;;;;10.53;5.83;;;13.20;99.90;;;;;;4833242;29;20467;-91
2021/09/23 21:29:04;;;;;;;6.13;5.40;;;13.20;99.90;;;;;;4845731;29;20459;-90
2021/09/23 21:31:29;;;;;;;6.23;5.23;;;13.30;99.90;;;;;;4826858;29;20584;-88
2021/09/23 21:33:55;;;;;;;5.77;5.10;;;13.40;99.90;;;;;;4823654;29;20872;-89
2021/09/23 21:36:21;;;;;;;5.33;4.83;;;13.30;99.90;;;;;;4820132;29;20197;-90
2021/09/23 21:38:46;;;;;;;6.97;5.10;;;13.30;99.90;;;;;;4822138;29;20207;-89
2021/09/23 21:41:12;;;;;;;7.03;4.63;;;13.40;99.90;;;;;;4819768;29;20300;-89
2021/09/23 21:43:38;;;;;;;6.00;5.40;;;13.40;99.90;;;;;;4836268;29;21038;-89
2021/09/23 21:46:04;;;;;;;5.87;4.90;;;13.40;99.90;;;;;;4823903;29;21546;-89
2021/09/23 21:48:29;;;;;;;5.33;4.70;;;13.40;99.90;;;;;;4819946;29;20233;-89
2021/09/23 21:50:55;;;;;;;5.60;4.97;;;13.40;99.90;;;;;;4825496;29;20226;-89
2021/09/23 21:53:21;;;;;;;5.20;4.70;;;13.30;99.90;;;;;;4829670;29;20265;-89
2021/09/23 21:55:46;;;;;;;5.27;4.77;;;13.20;99.90;;;;;;4823009;29;20250;-88
2021/09/23 21:58:12;;;;;;;5.30;4.80;;;13.20;99.90;;;;;;4823581;29;20221;-88
2021/09/23 22:00:42;;;;;;;5.00;4.33;;;13.10;99.90;;;;;;4837154;29;20842;-89
2021/09/23 22:03:10;;;;;;;5.70;4.87;;;13.00;99.90;;;;;;4825866;29;20191;-89
2021/09/23 22:05:40;;;;;;;5.43;4.90;;;13.10;99.90;;;;;;4819374;29;20466;-89
2021/09/23 22:08:11;;;;;;;6.47;5.10;;;13.10;99.90;;;;;;4833852;29;20469;-87
2021/09/23 22:10:38;;;;;;;6.30;4.57;;;13.20;99.90;;;;;;4824088;29;20512;-88
2021/09/23 22:13:04;;;;;;;4.97;4.47;;;13.30;99.90;;;;;;4810636;29;20466;-88
2021/09/23 22:15:31;;;;;;;5.53;4.60;;;13.30;99.90;;;;;;4820143;29;21054;-89